createdAt,value
2019-03-28T00:01:25.143Z,23.47
2019-03-28T00:03:53.684Z,25.08
2019-03-28T00:06:22.050Z,27.85
2019-03-28T00:08:50.432Z,29.30
2019-03-28T00:11:18.857Z,36.03
2019-03-28T00:13:47.232Z,26.97
2019-03-28T00:16:15.676Z,27.30
2019-03-28T00:18:44.076Z,33.17
2019-03-28T00:21:12.482Z,36.20
2019-03-28T00:23:42.541Z,29.47
2019-03-28T00:26:11.020Z,30.60
2019-03-28T00:28:39.390Z,36.83
2019-03-28T00:31:07.802Z,27.57
2019-03-28T00:33:36.282Z,32.93
2019-03-28T00:36:04.771Z,26.10
2019-03-28T00:38:33.201Z,28.97
2019-03-28T00:41:01.607Z,24.87
2019-03-28T00:43:30.009Z,22.17
2019-03-28T00:45:58.618Z,26.37
2019-03-28T00:48:27.212Z,37.67
2019-03-28T00:50:55.829Z,35.55
2019-03-28T00:53:24.257Z,42.30
2019-03-28T00:55:52.668Z,43.53
2019-03-28T00:58:21.082Z,38.53
2019-03-28T01:00:49.605Z,39.03
2019-03-28T01:03:18.030Z,38.67
2019-03-28T01:05:46.566Z,37.07
2019-03-28T01:08:14.942Z,38.77
2019-03-28T01:10:43.486Z,35.63
2019-03-28T01:13:11.933Z,29.30
2019-03-28T01:15:40.333Z,30.70
2019-03-28T01:18:08.751Z,28.33
2019-03-28T01:20:37.153Z,31.93
2019-03-28T01:23:05.529Z,29.27
2019-03-28T01:25:33.901Z,31.97
2019-03-28T01:28:02.246Z,30.48
2019-03-28T01:30:30.764Z,35.40
2019-03-28T01:32:59.097Z,24.67
2019-03-28T01:35:27.589Z,26.07
2019-03-28T01:37:55.993Z,40.80
2019-03-28T01:40:24.398Z,51.10
2019-03-28T01:42:52.781Z,26.00
2019-03-28T01:45:21.185Z,30.47
2019-03-28T01:47:49.687Z,33.90
2019-03-28T01:50:18.087Z,38.50
2019-03-28T01:52:48.708Z,27.30
2019-03-28T01:55:17.209Z,26.25
2019-03-28T01:57:45.585Z,31.27
2019-03-28T02:00:14.053Z,37.23
2019-03-28T02:02:42.437Z,44.97
2019-03-28T02:05:11.102Z,39.23
2019-03-28T02:07:39.472Z,40.45
2019-03-28T02:10:07.882Z,43.10
2019-03-28T02:12:36.446Z,37.03
2019-03-28T02:15:07.484Z,37.95
2019-03-28T02:17:35.898Z,32.50
2019-03-28T02:20:06.036Z,36.55
2019-03-28T02:22:34.506Z,33.90
2019-03-28T02:25:02.906Z,34.80
2019-03-28T02:27:31.338Z,35.78
2019-03-28T02:29:59.742Z,38.13
2019-03-28T02:32:28.125Z,36.27
2019-03-28T02:35:14.617Z,40.57
2019-03-28T02:37:43.028Z,36.88
2019-03-28T02:49:52.406Z,38.98
2019-03-28T02:52:21.545Z,40.48
2019-03-28T02:54:50.144Z,38.10
2019-03-28T02:57:18.526Z,37.00
2019-03-28T02:59:46.958Z,43.60
2019-03-28T03:02:18.297Z,29.33
2019-03-28T03:04:46.737Z,36.42
2019-03-28T03:07:15.147Z,50.63
2019-03-28T03:09:43.568Z,57.67
2019-03-28T03:12:12.112Z,52.23
2019-03-28T03:14:41.518Z,47.75
2019-03-28T03:17:09.922Z,53.63
2019-03-28T03:19:38.305Z,51.05
2019-03-28T03:22:06.820Z,48.17
2019-03-28T03:24:35.211Z,44.65
2019-03-28T03:27:03.658Z,41.33
2019-03-28T03:29:32.096Z,44.63
2019-03-28T03:32:00.504Z,42.45
2019-03-28T03:34:28.930Z,36.08
2019-03-28T03:36:57.395Z,41.15
2019-03-28T03:39:25.983Z,37.45
2019-03-28T03:41:54.493Z,43.25
2019-03-28T03:44:22.942Z,35.78
2019-03-28T03:46:51.355Z,38.25
2019-03-28T03:49:19.760Z,34.13
2019-03-28T03:51:48.206Z,30.57
2019-03-28T03:54:16.628Z,38.48
2019-03-28T03:56:45.208Z,41.92
2019-03-28T03:59:13.593Z,51.00
2019-03-28T04:01:41.965Z,40.80
2019-03-28T04:04:10.366Z,41.00
2019-03-28T04:06:38.747Z,44.20
2019-03-28T04:09:07.475Z,35.73
2019-03-28T04:11:35.906Z,42.85
2019-03-28T04:14:04.684Z,32.13
2019-03-28T04:16:33.069Z,53.63
2019-03-28T04:19:01.457Z,38.43
2019-03-28T04:21:29.882Z,30.92
2019-03-28T04:23:58.274Z,38.63
2019-03-28T04:26:27.426Z,31.95
2019-03-28T04:28:55.851Z,32.38
2019-03-28T04:31:24.269Z,40.90
2019-03-28T04:33:52.735Z,42.93
2019-03-28T04:36:21.117Z,36.93
2019-03-28T04:38:50.539Z,41.00
2019-03-28T04:41:19.168Z,56.00
2019-03-28T04:43:47.537Z,82.35
2019-03-28T04:46:15.950Z,60.83
2019-03-28T04:48:44.401Z,48.37
2019-03-28T04:51:14.143Z,61.17
2019-03-28T04:53:42.551Z,46.28
2019-03-28T04:56:10.987Z,53.20
2019-03-28T04:58:44.636Z,45.85
2019-03-28T05:01:09.462Z,126.00
2019-03-28T05:03:37.849Z,94.45
2019-03-28T05:06:06.270Z,166.80
2019-03-28T05:08:34.687Z,122.23
2019-03-28T05:11:03.065Z,224.80
2019-03-28T05:13:31.452Z,194.27
2019-03-28T05:15:59.871Z,155.33
2019-03-28T05:18:28.265Z,99.40
2019-03-28T05:20:56.693Z,150.83
2019-03-28T05:23:25.107Z,118.03
2019-03-28T05:25:53.515Z,43.83
2019-03-28T05:28:21.925Z,93.90
2019-03-28T05:30:50.330Z,108.70
2019-03-28T05:33:18.738Z,76.20
2019-03-28T05:35:47.173Z,71.53
2019-03-28T05:38:15.556Z,91.07
2019-03-28T05:40:44.025Z,94.13
2019-03-28T05:43:14.086Z,116.40
2019-03-28T05:45:42.676Z,77.72
2019-03-28T05:48:11.025Z,105.17
2019-03-28T05:50:39.442Z,51.70
2019-03-28T05:53:07.895Z,45.15
2019-03-28T05:55:36.306Z,54.33
2019-03-28T05:58:04.720Z,41.93
2019-03-28T06:00:38.792Z,27.30
2019-03-28T06:03:04.495Z,19.25
2019-03-28T06:05:32.888Z,31.70
2019-03-28T06:08:01.270Z,36.40
2019-03-28T06:10:29.658Z,65.10
2019-03-28T06:12:58.275Z,41.93
2019-03-28T06:15:26.642Z,25.43
2019-03-28T06:17:55.052Z,42.38
2019-03-28T06:20:23.453Z,13.27
2019-03-28T06:22:51.865Z,86.20
2019-03-28T06:25:20.273Z,71.70
2019-03-28T06:27:48.691Z,39.20
2019-03-28T06:30:17.098Z,80.43
2019-03-28T06:32:45.652Z,44.03
2019-03-28T06:35:14.032Z,43.33
2019-03-28T06:37:42.406Z,47.27
2019-03-28T06:40:10.805Z,41.80
2019-03-28T06:42:39.371Z,46.17
2019-03-28T06:45:07.985Z,34.03
2019-03-28T06:47:36.537Z,43.50
2019-03-28T06:50:07.869Z,26.00
2019-03-28T06:52:36.470Z,27.60
2019-03-28T06:55:05.214Z,22.25
2019-03-28T06:57:33.631Z,21.45
2019-03-28T07:00:02.006Z,15.50
2019-03-28T07:02:30.442Z,19.80
2019-03-28T07:04:58.811Z,19.03
2019-03-28T07:07:27.148Z,25.73
2019-03-28T07:09:55.535Z,24.90
2019-03-28T07:12:23.915Z,23.63
2019-03-28T07:14:52.329Z,29.80
2019-03-28T07:17:20.739Z,19.07
2019-03-28T07:19:49.178Z,20.87
2019-03-28T07:22:17.581Z,19.37
2019-03-28T07:24:45.985Z,17.87
2019-03-28T07:27:14.368Z,29.43
2019-03-28T07:29:50.743Z,19.53
2019-03-28T07:32:12.919Z,22.17
2019-03-28T07:34:41.334Z,32.17
2019-03-28T07:37:09.706Z,16.93
2019-03-28T07:39:38.193Z,14.43
2019-03-28T07:42:06.620Z,15.83
2019-03-28T07:44:37.506Z,10.43
2019-03-28T07:47:05.055Z,17.52
2019-03-28T07:49:33.437Z,17.60
2019-03-28T07:52:01.854Z,18.40
2019-03-28T07:54:30.229Z,17.07
2019-03-28T07:56:58.650Z,14.87
2019-03-28T07:59:27.046Z,16.00
2019-03-28T08:01:55.424Z,15.13
2019-03-28T08:04:23.797Z,15.63
2019-03-28T08:06:52.143Z,11.68
2019-03-28T08:09:20.570Z,13.10
2019-03-28T08:11:48.984Z,14.50
2019-03-28T08:14:17.369Z,17.43
2019-03-28T08:16:45.779Z,15.03
2019-03-28T08:19:14.177Z,19.57
2019-03-28T08:21:42.577Z,14.58
2019-03-28T08:24:11.161Z,15.77
2019-03-28T08:26:39.637Z,15.40
2019-03-28T08:29:08.017Z,15.53
2019-03-28T08:31:40.718Z,16.97
2019-03-28T08:34:08.395Z,18.37
2019-03-28T08:36:36.957Z,14.43
2019-03-28T08:39:06.732Z,17.45
2019-03-28T08:41:35.125Z,11.85
2019-03-28T08:44:03.533Z,15.38
2019-03-28T08:46:32.092Z,13.80
2019-03-28T08:49:00.486Z,8.53
2019-03-28T08:51:28.925Z,9.08
2019-03-28T08:53:57.353Z,6.60
2019-03-28T08:56:25.751Z,13.73
2019-03-28T08:58:54.166Z,8.18
2019-03-28T09:01:23.172Z,10.50
2019-03-28T09:03:51.570Z,10.30
2019-03-28T09:06:20.133Z,10.10
2019-03-28T09:08:48.597Z,9.95
2019-03-28T09:11:17.034Z,10.18
2019-03-28T09:13:45.373Z,13.70
2019-03-28T09:16:13.795Z,12.75
2019-03-28T09:18:42.349Z,10.70
2019-03-28T09:21:10.927Z,11.77
2019-03-28T09:23:39.298Z,10.80
2019-03-28T09:26:07.711Z,10.72
2019-03-28T09:28:36.115Z,12.95
2019-03-28T09:31:04.530Z,16.67
2019-03-28T09:33:32.909Z,17.12
2019-03-28T09:36:01.305Z,19.27
2019-03-28T09:38:29.727Z,13.00
2019-03-28T09:40:58.140Z,10.98
2019-03-28T09:43:26.548Z,32.70
2019-03-28T09:45:55.001Z,10.20
2019-03-28T09:48:23.358Z,8.95
2019-03-28T09:50:51.739Z,9.50
2019-03-28T09:53:20.142Z,9.10
2019-03-28T09:55:48.594Z,15.67
2019-03-28T09:58:16.993Z,14.50
2019-03-28T10:00:45.494Z,13.90
2019-03-28T10:03:13.903Z,12.50
2019-03-28T10:05:42.319Z,8.53
2019-03-28T10:08:10.682Z,18.65
2019-03-28T10:10:39.065Z,15.03
2019-03-28T10:13:07.550Z,15.50
2019-03-28T10:15:37.128Z,14.33
2019-03-28T10:18:05.683Z,27.17
2019-03-28T10:20:34.057Z,11.73
2019-03-28T10:23:02.538Z,14.03
2019-03-28T10:25:30.923Z,7.57
2019-03-28T10:27:59.273Z,9.48
2019-03-28T10:30:39.126Z,9.48
2019-03-28T10:33:07.877Z,8.08
2019-03-28T10:35:36.293Z,11.15
2019-03-28T10:38:05.559Z,10.00
2019-03-28T10:40:34.099Z,8.43
2019-03-28T10:43:02.682Z,6.40
2019-03-28T10:45:33.606Z,23.35
2019-03-28T10:48:01.207Z,11.22
2019-03-28T10:50:40.183Z,16.20
2019-03-28T10:52:59.683Z,6.95
2019-03-28T10:55:28.057Z,6.70
2019-03-28T10:57:56.493Z,8.70
2019-03-28T11:00:25.859Z,11.90
2019-03-28T11:02:54.470Z,5.67
2019-03-28T11:05:23.004Z,9.18
2019-03-28T11:07:51.444Z,9.13
2019-03-28T11:10:19.844Z,7.83
2019-03-28T11:12:48.343Z,8.65
2019-03-28T11:15:16.822Z,7.47
2019-03-28T11:17:45.190Z,8.27
2019-03-28T11:20:13.645Z,13.00
2019-03-28T11:22:42.051Z,12.43
2019-03-28T11:25:10.459Z,9.83
2019-03-28T11:27:38.843Z,16.15
2019-03-28T11:30:08.128Z,9.35
2019-03-28T11:32:36.567Z,8.18
2019-03-28T11:35:08.454Z,8.27
2019-03-28T11:37:37.218Z,17.48
2019-03-28T11:40:09.237Z,8.90
2019-03-28T11:42:37.675Z,6.92
2019-03-28T11:45:09.279Z,9.68
2019-03-28T11:47:37.254Z,8.45
2019-03-28T11:50:08.370Z,12.23
2019-03-28T11:52:37.098Z,4.47
2019-03-28T11:55:07.121Z,8.78
2019-03-28T11:57:36.462Z,7.60
2019-03-28T12:05:02.026Z,9.13
2019-03-28T12:07:30.437Z,6.97
2019-03-28T12:09:58.850Z,12.63
2019-03-28T12:12:27.282Z,7.17
2019-03-28T12:14:55.691Z,6.67
2019-03-28T12:17:24.069Z,2.75
2019-03-28T12:19:52.482Z,11.45
2019-03-28T12:22:20.925Z,8.77
2019-03-28T12:24:49.478Z,21.40
2019-03-28T12:27:17.816Z,6.62
2019-03-28T12:29:46.229Z,5.87
2019-03-28T12:32:14.756Z,3.85
2019-03-28T12:34:43.252Z,13.30
2019-03-28T12:37:11.749Z,4.15
2019-03-28T12:39:40.146Z,2.00
2019-03-28T12:42:08.572Z,52.25
2019-03-28T12:44:36.970Z,8.90
2019-03-28T12:47:05.373Z,13.50
2019-03-28T12:49:33.742Z,3.37
2019-03-28T12:52:02.182Z,3.85
2019-03-28T12:54:30.549Z,5.90
2019-03-28T12:56:59.090Z,9.30
2019-03-28T12:59:27.459Z,14.00
2019-03-28T13:01:55.870Z,5.72
2019-03-28T13:04:24.278Z,9.80
2019-03-28T13:06:52.654Z,9.60
2019-03-28T13:09:21.033Z,5.87
2019-03-28T13:11:49.417Z,7.40
2019-03-28T13:14:17.830Z,15.10
2019-03-28T13:16:46.201Z,22.77
2019-03-28T13:19:14.581Z,14.28
2019-03-28T13:21:43.029Z,126.55
2019-03-28T13:24:11.555Z,6.97
2019-03-28T13:26:39.949Z,5.13
2019-03-28T13:29:08.529Z,15.32
2019-03-28T13:31:36.989Z,8.05
2019-03-28T13:34:05.399Z,38.05
2019-03-28T13:36:33.813Z,8.53
2019-03-28T13:39:02.218Z,18.87
2019-03-28T13:41:30.622Z,5.50
2019-03-28T13:43:58.988Z,8.78
2019-03-28T13:46:27.411Z,14.05
2019-03-28T13:48:55.839Z,13.07
2019-03-28T13:51:24.202Z,6.92
2019-03-28T13:53:53.754Z,11.48
2019-03-28T13:56:22.383Z,41.75
2019-03-28T13:58:50.762Z,5.90
2019-03-28T14:01:19.190Z,22.85
2019-03-28T14:03:47.582Z,8.00
2019-03-28T14:06:15.965Z,2.87
2019-03-28T14:08:44.342Z,6.83
2019-03-28T14:11:12.746Z,6.40
2019-03-28T14:13:41.274Z,19.35
2019-03-28T14:16:09.678Z,183.10
2019-03-28T14:18:38.094Z,19.48
2019-03-28T14:21:06.482Z,26.62
2019-03-28T14:23:35.554Z,18.05
2019-03-28T14:26:03.930Z,4.47
2019-03-28T14:28:32.333Z,8.23
2019-03-28T14:31:01.057Z,12.70
2019-03-28T14:33:29.629Z,7.08
2019-03-28T14:35:58.115Z,21.37
2019-03-28T14:38:26.594Z,2.13
2019-03-28T14:40:57.033Z,2.90
2019-03-28T14:43:25.016Z,10.65
2019-03-28T14:45:53.401Z,8.08
2019-03-28T14:48:21.859Z,16.93
2019-03-28T14:50:50.334Z,9.07
2019-03-28T14:53:21.993Z,4.30
2019-03-28T14:55:48.837Z,18.48
2019-03-28T14:58:17.416Z,19.50
2019-03-28T15:00:50.994Z,19.82
2019-03-28T15:03:26.176Z,6.78
2019-03-28T15:05:49.437Z,17.85
2019-03-28T15:08:18.428Z,34.73
2019-03-28T15:10:46.832Z,3.83
2019-03-28T15:13:15.237Z,9.65
2019-03-28T15:15:43.634Z,15.70
2019-03-28T15:18:12.063Z,30.68
2019-03-28T15:20:40.602Z,9.23
2019-03-28T15:23:08.993Z,8.70
2019-03-28T15:25:37.464Z,4.45
2019-03-28T15:28:05.857Z,12.07
2019-03-28T15:30:34.247Z,31.70
2019-03-28T15:33:02.670Z,13.93
2019-03-28T15:35:31.182Z,12.90
2019-03-28T15:37:59.694Z,21.63
2019-03-28T15:40:28.137Z,10.37
2019-03-28T15:42:56.590Z,14.87
2019-03-28T15:45:24.993Z,6.97
2019-03-28T15:47:53.390Z,8.90
2019-03-28T15:50:21.804Z,13.93
2019-03-28T15:52:50.184Z,13.77
2019-03-28T15:55:18.602Z,18.07
2019-03-28T15:57:47.007Z,81.63
2019-03-28T16:00:15.617Z,26.80
2019-03-28T16:02:44.025Z,31.40
2019-03-28T16:05:12.401Z,31.05
2019-03-28T16:07:40.857Z,16.15
2019-03-28T16:10:09.264Z,15.50
2019-03-28T16:12:37.663Z,16.40
2019-03-28T16:15:07.542Z,23.55
2019-03-28T16:17:35.945Z,11.05
2019-03-28T16:20:05.590Z,44.77
2019-03-28T16:22:34.003Z,34.03
2019-03-28T16:25:02.369Z,15.43
2019-03-28T16:27:30.778Z,52.38
2019-03-28T16:29:59.389Z,22.23
2019-03-28T16:32:28.373Z,20.35
2019-03-28T16:34:57.342Z,12.93
2019-03-28T16:37:25.728Z,130.45
2019-03-28T16:39:54.142Z,30.72
2019-03-28T16:42:22.532Z,13.30
2019-03-28T16:44:50.871Z,25.48
2019-03-28T16:47:19.384Z,19.02
2019-03-28T16:49:47.785Z,35.30
2019-03-28T16:52:16.182Z,21.05
2019-03-28T16:54:44.593Z,87.40
2019-03-28T16:57:13.033Z,24.83
2019-03-28T16:59:41.426Z,13.18
2019-03-28T17:02:09.831Z,9.43
2019-03-28T17:04:38.273Z,15.83
2019-03-28T17:07:07.545Z,36.07
2019-03-28T17:09:37.690Z,16.55
2019-03-28T17:12:06.790Z,13.03
2019-03-28T17:14:35.130Z,21.68
2019-03-28T17:17:03.633Z,13.78
2019-03-28T17:19:32.074Z,17.90
2019-03-28T17:22:00.602Z,12.50
2019-03-28T17:24:28.969Z,73.07
2019-03-28T17:26:57.349Z,67.42
2019-03-28T17:29:25.731Z,37.25
2019-03-28T17:31:54.148Z,13.35
2019-03-28T17:34:34.049Z,15.60
2019-03-28T17:36:52.549Z,15.18
2019-03-28T17:39:20.960Z,14.23
2019-03-28T17:41:49.395Z,15.77
2019-03-28T17:44:17.840Z,29.98
2019-03-28T17:46:46.221Z,50.90
2019-03-28T17:49:14.681Z,28.93
2019-03-28T17:51:43.041Z,11.70
2019-03-28T17:54:11.955Z,21.30
2019-03-28T17:56:40.565Z,12.82
2019-03-28T17:59:08.962Z,11.40
2019-03-28T18:01:37.495Z,10.97
2019-03-28T18:04:06.870Z,8.60
2019-03-28T18:06:35.348Z,27.70
2019-03-28T18:09:05.878Z,18.12
2019-03-28T18:11:34.274Z,6.65
2019-03-28T18:14:02.687Z,5.83
2019-03-28T18:16:31.098Z,8.78
2019-03-28T18:18:59.497Z,7.17
2019-03-28T18:21:27.948Z,10.08
2019-03-28T18:23:56.497Z,7.53
2019-03-28T18:26:25.135Z,10.28
2019-03-28T18:28:54.114Z,7.10
2019-03-28T18:31:22.543Z,9.65
2019-03-28T18:33:50.974Z,6.30
2019-03-28T18:36:19.403Z,8.40
2019-03-28T18:38:47.789Z,10.82
2019-03-28T18:41:16.165Z,12.00
2019-03-28T18:43:44.569Z,16.27
2019-03-28T18:46:14.703Z,11.97
2019-03-28T18:48:43.043Z,6.97
2019-03-28T18:51:11.446Z,11.57
2019-03-28T18:53:39.851Z,11.68
2019-03-28T18:56:08.367Z,15.60
2019-03-28T18:58:36.855Z,8.97
2019-03-28T19:01:05.249Z,10.07
2019-03-28T19:03:33.624Z,6.33
2019-03-28T19:06:02.052Z,5.12
2019-03-28T19:08:30.459Z,10.17
2019-03-28T19:10:58.853Z,5.83
2019-03-28T19:13:27.262Z,4.70
2019-03-28T19:15:55.645Z,4.80
2019-03-28T19:18:24.045Z,6.28
2019-03-28T19:20:52.480Z,10.30
2019-03-28T19:23:20.946Z,12.15
2019-03-28T19:25:49.387Z,3.53
2019-03-28T19:28:28.126Z,7.33
2019-03-28T19:30:47.820Z,6.37
2019-03-28T19:33:16.258Z,11.80
2019-03-28T19:35:44.692Z,13.03
2019-03-28T19:38:13.170Z,12.80
2019-03-28T19:40:41.529Z,9.23
2019-03-28T19:43:20.480Z,13.95
2019-03-28T19:45:40.150Z,12.55
2019-03-28T19:48:08.546Z,10.00
2019-03-28T19:50:37.002Z,18.30
2019-03-28T19:53:05.388Z,19.57
2019-03-28T19:55:33.770Z,11.33
2019-03-28T19:58:02.192Z,12.03
2019-03-28T20:00:30.585Z,6.93
2019-03-28T20:03:00.546Z,4.37
2019-03-28T20:05:29.034Z,5.78
2019-03-28T20:07:57.451Z,4.17
2019-03-28T20:10:25.842Z,8.58
2019-03-28T20:12:54.279Z,4.63
2019-03-28T20:15:22.628Z,4.87
2019-03-28T20:17:51.035Z,5.80
2019-03-28T20:20:19.479Z,4.90
2019-03-28T20:22:47.848Z,5.30
2019-03-28T20:25:16.231Z,7.85
2019-03-28T20:27:44.634Z,9.43
2019-03-28T20:30:13.038Z,9.08
2019-03-28T20:32:41.405Z,7.17
2019-03-28T20:35:10.752Z,9.83
2019-03-28T20:37:39.399Z,13.60
2019-03-28T20:40:08.006Z,5.10
2019-03-28T20:42:36.442Z,6.78
2019-03-28T20:45:06.677Z,5.90
2019-03-28T20:47:35.069Z,12.43
2019-03-28T20:50:05.751Z,7.07
2019-03-28T20:52:34.154Z,7.40
2019-03-28T20:55:02.529Z,8.00
2019-03-28T20:57:30.893Z,8.98
2019-03-28T20:59:59.299Z,7.05
2019-03-28T21:02:27.695Z,5.77
2019-03-28T21:04:56.102Z,9.73
2019-03-28T21:07:24.517Z,6.30
2019-03-28T21:09:52.884Z,10.27
2019-03-28T21:12:21.217Z,11.60
2019-03-28T21:14:49.627Z,4.27
2019-03-28T21:17:18.058Z,6.97
2019-03-28T21:19:46.478Z,7.37
2019-03-28T21:22:14.851Z,9.93
2019-03-28T21:24:43.188Z,8.83
2019-03-28T21:27:11.613Z,9.45
2019-03-28T21:29:48.894Z,10.23
2019-03-28T21:32:10.221Z,7.30
2019-03-28T21:34:38.636Z,14.53
2019-03-28T21:37:07.095Z,7.53
2019-03-28T21:39:35.479Z,7.07
2019-03-28T21:42:06.973Z,7.60
2019-03-28T21:44:34.023Z,9.38
2019-03-28T21:47:02.373Z,10.43
2019-03-28T21:49:30.780Z,6.77
2019-03-28T21:51:59.153Z,4.13
2019-03-28T21:54:27.558Z,6.00
2019-03-28T21:56:55.978Z,7.42
2019-03-28T21:59:24.399Z,7.40
2019-03-28T22:01:52.800Z,7.15
2019-03-28T22:04:21.188Z,5.80
2019-03-28T22:06:49.737Z,8.33
2019-03-28T22:09:18.206Z,14.65
2019-03-28T22:11:46.599Z,5.60
2019-03-28T22:14:15.045Z,6.70
2019-03-28T22:16:43.446Z,9.30
2019-03-28T22:19:11.844Z,27.30
2019-03-28T22:21:40.209Z,5.67
2019-03-28T22:24:08.766Z,6.87
2019-03-28T22:26:37.161Z,8.75
2019-03-28T22:29:05.531Z,8.47
2019-03-28T22:31:33.964Z,8.67
2019-03-28T22:34:02.311Z,6.50
2019-03-28T22:36:30.680Z,7.87
2019-03-28T22:38:59.019Z,6.42
2019-03-28T22:41:27.400Z,6.78
2019-03-28T22:43:55.843Z,6.20
2019-03-28T22:46:24.244Z,5.90
2019-03-28T22:48:52.615Z,8.83
2019-03-28T22:51:21.025Z,7.45
2019-03-28T22:53:49.397Z,6.50
2019-03-28T22:56:17.802Z,7.30
2019-03-28T22:58:46.175Z,7.37
2019-03-28T23:01:14.665Z,7.10
2019-03-28T23:03:43.166Z,8.63
2019-03-28T23:06:11.599Z,7.35
2019-03-28T23:08:39.973Z,6.13
2019-03-28T23:11:08.353Z,8.85
2019-03-28T23:13:36.848Z,4.93
2019-03-28T23:16:05.218Z,6.73
2019-03-28T23:18:33.622Z,7.62
2019-03-28T23:21:02.022Z,9.00
2019-03-28T23:23:30.385Z,8.03
2019-03-28T23:25:58.795Z,7.83
2019-03-28T23:28:27.238Z,7.23
2019-03-28T23:30:55.606Z,7.23
2019-03-28T23:33:24.112Z,5.47
2019-03-28T23:35:52.478Z,5.43
2019-03-28T23:38:20.846Z,8.00
2019-03-28T23:40:49.261Z,9.20
2019-03-28T23:43:17.662Z,6.90
2019-03-28T23:45:46.071Z,8.33
2019-03-28T23:48:14.474Z,6.28
2019-03-28T23:50:42.871Z,9.33
2019-03-28T23:53:11.262Z,11.08
2019-03-28T23:55:39.627Z,9.75
2019-03-28T23:58:08.056Z,9.73
